Time;durP1;ratioP1;P1;durP2;ratioP2;P2;SDS_P1;SDS_P2;PMS_P1;PMS_P2;Temp;Humidity;BMP_temperature;BMP_pressure;BME280_temperature;BME280_humidity;BME280_pressure;Samples;Min_cycle;Max_cycle;Signal;HPM_P1;HPM_P2
2022/11/11 00:01:14;;;;;;;46.90;27.42;;;;;;;6.09;95.97;101474.52;1749768;81;25619;-51
2022/11/11 00:03:43;;;;;;;38.98;24.85;;;;;;;6.09;96.20;101478.55;1749783;81;27380;-51
2022/11/11 00:06:14;;;;;;;40.70;24.85;;;;;;;6.09;96.08;101473.72;1750693;80;25677;-52
2022/11/11 00:08:42;;;;;;;46.13;25.62;;;;;;;6.07;95.93;101471.27;1747109;81;25393;-51
2022/11/11 00:11:13;;;;;;;47.60;26.05;;;;;;;6.08;96.03;101482.31;1749788;81;25901;-53
2022/11/11 00:13:42;;;;;;;42.67;26.45;;;;;;;6.08;96.10;101481.48;1750318;80;25558;-52
2022/11/11 00:16:19;;;;;;;43.85;24.52;;;;;;;6.07;96.13;101486.05;1734826;80;28160;-51
2022/11/11 00:27:12;;;;;;;48.10;27.32;;;;;;;6.04;96.27;101496.48;1745173;80;25476;-51
2022/11/11 00:29:40;;;;;;;49.83;27.55;;;;;;;6.03;96.44;101501.05;1717704;82;27312;-51
2022/11/11 00:32:29;;;;;;;43.48;25.43;;;;;;;6.04;96.54;101497.83;1737165;81;25597;-51
2022/11/11 00:37:49;;;;;;;46.98;25.37;;;;;;;6.08;96.92;101497.59;1733827;81;25542;-50
2022/11/11 00:40:17;;;;;;;40.90;24.57;;;;;;;6.12;97.33;101502.23;1733744;80;25427;-52
2022/11/11 00:42:43;;;;;;;44.05;26.23;;;;;;;6.15;97.17;101501.73;1738325;81;27308;-51
2022/11/11 00:45:12;;;;;;;40.83;24.77;;;;;;;6.15;96.84;101504.97;1748224;81;25320;-51
2022/11/11 00:53:22;;;;;;;40.05;24.57;;;;;;;6.32;97.46;101515.11;1732424;82;25857;-50
2022/11/11 00:55:48;;;;;;;40.73;25.25;;;;;;;6.32;97.46;101515.11;1726785;82;28278;-54
2022/11/11 00:58:15;;;;;;;41.45;26.17;;;;;;;6.23;97.36;101500.51;1738392;81;25406;-51
2022/11/11 01:00:43;;;;;;;38.42;24.25;;;;;;;6.21;97.16;101497.77;1732631;81;25452;-51
2022/11/11 01:03:09;;;;;;;44.15;25.12;;;;;;;6.21;97.12;101502.61;1736694;81;26084;-51
2022/11/11 01:05:39;;;;;;;41.23;25.80;;;;;;;6.21;97.18;101495.89;1734378;81;25520;-51
2022/11/11 01:08:05;;;;;;;;;;;;;;;6.19;96.80;101493.98;1738017;82;27393;-51
2022/11/11 01:10:37;;;;;;;37.33;22.87;;;;;;;6.17;96.71;101496.92;1748692;81;25783;-50
2022/11/11 01:13:14;;;;;;;44.55;24.70;;;;;;;6.15;96.76;101491.53;1751242;80;25453;-51
2022/11/11 01:15:45;;;;;;;43.28;24.50;;;;;;;6.14;96.81;101492.05;1715933;83;25452;-50
2022/11/11 01:18:17;;;;;;;46.58;25.85;;;;;;;6.12;96.74;101492.83;1737052;81;25463;-49
2022/11/11 01:20:45;;;;;;;42.93;25.90;;;;;;;6.12;97.01;101488.80;1686781;83;27336;-49
2022/11/11 01:23:14;;;;;;;42.15;25.85;;;;;;;6.12;97.10;101497.40;1736123;81;25651;-51
2022/11/11 01:25:42;;;;;;;45.23;25.88;;;;;;;6.12;97.24;101496.05;1735501;81;25759;-51
2022/11/11 01:28:09;;;;;;;42.93;25.55;;;;;;;6.11;97.34;101492.56;1760361;80;25839;-50
2022/11/11 01:30:36;;;;;;;43.68;26.23;;;;;;;6.12;97.37;101493.38;1722850;82;25469;-53
2022/11/11 01:33:04;;;;;;;44.73;28.02;;;;;;;6.12;97.57;101492.83;1740501;82;29459;-50
2022/11/11 01:35:31;;;;;;;52.83;28.00;;;;;;;6.11;97.61;101487.20;1737547;81;25462;-51
2022/11/11 01:37:58;;;;;;;45.20;26.20;;;;;;;6.14;97.79;101493.39;1736821;82;25441;-54
2022/11/11 01:40:26;;;;;;;47.03;27.17;;;;;;;6.15;97.80;101489.65;1718586;82;25581;-53
2022/11/11 01:43:06;;;;;;;43.68;26.27;;;;;;;6.16;97.85;101486.42;1736124;81;25458;-55
2022/11/11 01:45:58;;;;;;;51.53;26.65;;;;;;;6.19;98.06;101494.53;1739989;81;27504;-54
2022/11/11 01:51:30;;;;;;;40.30;26.05;;;;;;;6.24;98.40;101482.50;1748982;80;25583;-52
2022/11/11 01:54:01;;;;;;;49.38;27.17;;;;;;;6.25;98.28;101486.79;1734608;82;25457;-50
2022/11/11 01:56:29;;;;;;;46.42;27.00;;;;;;;6.27;98.65;101486.84;1754380;81;25570;-51
2022/11/11 01:59:01;;;;;;;43.48;27.50;;;;;;;6.28;98.60;101476.38;1748255;81;27289;-50
2022/11/11 02:01:27;;;;;;;45.83;26.57;;;;;;;6.32;98.58;101469.97;1747326;80;25789;-50
2022/11/11 02:06:41;;;;;;;39.13;25.82;;;;;;;6.34;98.67;101469.18;1727194;81;25675;-51
2022/11/11 02:09:09;;;;;;;43.48;25.50;;;;;;;6.36;98.79;101463.82;1754748;80;25422;-51
2022/11/11 02:14:36;;;;;;;43.68;26.52;;;;;;;6.38;98.89;101459.55;1720776;81;25550;-50
2022/11/11 02:17:08;;;;;;;46.30;26.82;;;;;;;6.40;99.02;101454.72;1695604;82;25756;-57
2022/11/11 02:20:00;;;;;;;48.87;25.23;;;;;;;6.42;99.09;101457.16;1740604;81;25529;-51
2022/11/11 02:23:02;;;;;;;42.08;25.95;;;;;;;6.43;98.99;101462.28;1738528;81;25409;-51
2022/11/11 02:25:32;;;;;;;46.63;26.97;;;;;;;6.44;99.04;101455.86;1747703;80;27160;-51
2022/11/11 02:28:03;;;;;;;44.30;26.97;;;;;;;6.45;98.96;101452.12;1749205;81;25557;-52
2022/11/11 02:30:30;;;;;;;44.67;26.12;;;;;;;6.47;98.85;101462.59;1674477;84;25472;-51
2022/11/11 02:32:56;;;;;;;43.02;25.17;;;;;;;6.45;98.86;101456.15;1725508;82;25573;-51
2022/11/11 02:35:30;;;;;;;48.95;26.52;;;;;;;6.45;98.88;101459.34;1719951;81;25415;-52
2022/11/11 02:37:56;;;;;;;47.85;26.95;;;;;;;6.44;98.78;101459.89;1686738;82;27394;-51
2022/11/11 02:40:34;;;;;;;44.83;25.65;;;;;;;6.44;98.75;101466.61;1738364;81;25536;-50
2022/11/11 02:43:00;;;;;;;42.83;25.95;;;;;;;6.43;98.67;101473.03;1745867;80;25771;-51
2022/11/11 02:45:26;;;;;;;43.70;26.15;;;;;;;6.43;98.62;101471.69;1740298;81;26201;-51
2022/11/11 02:47:53;;;;;;;43.02;26.23;;;;;;;6.42;98.42;101469.25;1731557;81;32398;-50
2022/11/11 02:50:19;;;;;;;54.50;26.70;;;;;;;6.40;98.39;101467.36;1708496;82;29515;-50
2022/11/11 02:52:45;;;;;;;51.13;26.82;;;;;;;6.39;98.26;101477.30;1735908;80;25611;-50
2022/11/11 02:55:12;;;;;;;45.30;26.30;;;;;;;6.38;98.10;101490.45;1752995;80;25414;-50
2022/11/11 02:57:39;;;;;;;54.08;26.87;;;;;;;6.34;98.07;101486.11;1743135;81;25780;-50
2022/11/11 03:00:08;;;;;;;44.40;26.30;;;;;;;6.32;97.98;101494.16;1737588;81;25532;-50
2022/11/11 03:02:35;;;;;;;44.10;25.88;;;;;;;6.30;97.84;101487.69;1738867;81;27392;-50
2022/11/11 03:05:01;;;;;;;46.40;26.17;;;;;;;6.25;97.76;101493.00;1735680;81;25827;-50
2022/11/11 03:07:28;;;;;;;45.40;27.80;;;;;;;6.22;97.61;101492.69;1733641;82;25454;-50
2022/11/11 03:09:54;;;;;;;45.00;27.35;;;;;;;6.19;97.72;101500.70;1733171;81;25502;-54
2022/11/11 03:12:20;;;;;;;46.25;27.30;;;;;;;6.15;97.63;101496.37;1740849;81;25418;-55
2022/11/11 03:14:46;;;;;;;47.98;27.85;;;;;;;6.12;97.55;101501.43;1743815;81;28062;-52
2022/11/11 03:21:03;;;;;;;45.67;27.25;;;;;;;6.05;97.55;101508.33;1739722;82;25475;-54
2022/11/11 03:22:24;;;;;;;48.35;28.32;;;;;;;6.02;97.41;101516.07;1683599;83;25482;-55
2022/11/11 03:27:35;;;;;;;47.60;28.42;;;;;;;5.94;97.47;101514.58;1689091;83;27377;-54
2022/11/11 03:30:01;;;;;;;48.30;29.37;;;;;;;5.90;97.49;101504.06;1743576;80;25498;-51
2022/11/11 03:32:27;;;;;;;52.78;29.05;;;;;;;5.86;97.40;101501.60;1751098;80;25479;-51
2022/11/11 03:34:53;;;;;;;45.58;27.70;;;;;;;5.83;97.49;101498.86;1740693;80;25712;-50
2022/11/11 03:40:12;;;;;;;47.20;29.05;;;;;;;5.78;97.59;101510.34;1737207;81;27335;-50
2022/11/11 03:42:40;;;;;;;51.80;29.07;;;;;;;5.77;97.72;101505.21;1729488;82;25578;-51
2022/11/11 03:45:08;;;;;;;51.50;29.37;;;;;;;5.76;97.81;101506.29;1748835;81;25382;-51
2022/11/11 03:47:34;;;;;;;53.52;29.82;;;;;;;5.71;97.81;101498.97;1741465;81;25485;-51
2022/11/11 03:50:00;;;;;;;50.58;29.72;;;;;;;5.73;97.91;101505.44;1731188;81;25479;-52
2022/11/11 03:52:26;;;;;;;48.83;28.05;;;;;;;5.71;97.99;101511.05;1733490;82;29588;-51
2022/11/11 03:54:52;;;;;;;50.58;29.45;;;;;;;5.70;98.08;101516.13;1732985;80;25550;-51
2022/11/11 03:57:30;;;;;;;56.30;31.02;;;;;;;5.70;98.23;101517.46;1738965;81;25697;-51
2022/11/11 03:59:56;;;;;;;48.68;28.80;;;;;;;5.70;98.32;101519.34;1744093;81;26067;-51
2022/11/11 04:10:38;;;;;;;53.60;29.12;;;;;;;5.72;98.78;101519.91;1751297;81;25426;-52
2022/11/11 04:16:07;;;;;;;54.35;29.85;;;;;;;5.72;98.77;101527.95;1729142;81;25636;-52
2022/11/11 04:21:43;;;;;;;51.20;28.35;;;;;;;5.73;98.83;101527.72;1735923;81;25851;-51
2022/11/11 04:27:09;;;;;;;53.75;28.55;;;;;;;5.74;99.18;101550.03;1739667;81;25688;-50
2022/11/11 04:29:40;;;;;;;52.53;29.42;;;;;;;5.77;99.49;101556.23;1710055;83;25831;-53
2022/11/11 04:35:01;;;;;;;52.38;29.00;;;;;;;5.83;99.95;101561.16;1710052;83;25614;-51
2022/11/11 04:37:33;;;;;;;54.65;30.12;;;;;;;5.86;100.00;101566.05;1710306;82;25609;-50
2022/11/11 04:42:48;;;;;;;51.45;28.45;;;;;;;5.91;100.00;101553.50;1688093;84;25690;-54
2022/11/11 04:45:26;;;;;;;48.95;29.02;;;;;;;5.93;100.00;101554.06;1679112;84;28210;-51
2022/11/11 04:48:04;;;;;;;47.95;27.58;;;;;;;5.93;99.99;101547.34;1705905;83;26690;-54
2022/11/11 04:50:42;;;;;;;47.98;28.52;;;;;;;5.96;100.00;101541.52;1724067;82;25633;-54
2022/11/11 04:53:11;;;;;;;50.88;27.65;;;;;;;5.98;100.00;101538.05;1710480;83;25718;-53
2022/11/11 04:58:34;;;;;;;47.88;26.80;;;;;;;6.03;100.00;101542.69;1710826;82;27313;-51
2022/11/11 05:01:00;;;;;;;53.23;27.50;;;;;;;6.06;100.00;101539.52;1711640;82;25519;-53
2022/11/11 05:03:26;;;;;;;50.67;26.80;;;;;;;6.08;100.00;101549.47;1709881;82;25730;-54
2022/11/11 05:08:54;;;;;;;46.90;25.60;;;;;;;6.12;100.00;101553.81;1723034;82;25561;-53
2022/11/11 05:11:26;;;;;;;45.05;25.75;;;;;;;6.15;100.00;101553.33;1703597;83;27311;-53
2022/11/11 05:25:29;;;;;;;40.75;23.45;;;;;;;6.27;100.00;101547.84;1717154;81;27122;-50
2022/11/11 05:27:57;;;;;;;40.88;25.40;;;;;;;6.38;100.00;101565.70;1731996;81;25852;-51
2022/11/11 05:30:25;;;;;;;48.90;24.45;;;;;;;6.31;100.00;101535.52;1718312;82;25524;-51
2022/11/11 05:32:56;;;;;;;45.20;23.47;;;;;;;6.32;100.00;101539.84;1715426;81;25512;-52
2022/11/11 05:35:23;;;;;;;46.63;23.18;;;;;;;6.34;100.00;101539.86;1727258;82;25690;-51
2022/11/11 05:38:19;;;;;;;38.15;23.07;;;;;;;6.36;100.00;101542.30;1722738;82;27493;-50
2022/11/11 05:40:17;;;;;;;40.67;23.20;;;;;;;6.37;100.00;101519.75;1716218;83;25843;-52
2022/11/11 05:42:43;;;;;;;39.58;23.15;;;;;;;6.40;100.00;101519.77;1716463;82;25477;-51
2022/11/11 05:45:10;;;;;;;43.42;22.60;;;;;;;6.42;100.00;101527.88;1723080;82;34711;-53
2022/11/11 05:47:36;;;;;;;37.20;22.55;;;;;;;6.44;100.00;101529.77;1725998;82;25829;-54
2022/11/11 05:50:03;;;;;;;43.80;22.90;;;;;;;6.47;100.00;101536.50;1726916;82;27405;-50
2022/11/11 05:52:29;;;;;;;35.75;21.75;;;;;;;6.49;100.00;101539.78;1718295;81;25462;-50
2022/11/11 05:54:55;;;;;;;46.20;23.40;;;;;;;6.51;100.00;101545.71;1722330;83;25418;-50
2022/11/11 05:57:21;;;;;;;38.50;21.87;;;;;;;6.53;100.00;101546.27;1726276;82;25513;-50
2022/11/11 05:59:47;;;;;;;39.60;22.48;;;;;;;6.57;100.00;101556.78;1728427;81;25438;-51
2022/11/11 06:02:13;;;;;;;37.00;22.15;;;;;;;6.59;100.00;101549.30;1719926;82;27435;-50
2022/11/11 06:04:39;;;;;;;33.83;20.52;;;;;;;6.61;100.00;101545.83;1717841;83;32729;-50
2022/11/11 06:07:05;;;;;;;41.23;21.05;;;;;;;6.66;100.00;101547.77;1712985;82;29714;-51
2022/11/11 06:09:31;;;;;;;35.68;21.02;;;;;;;6.69;100.00;101546.73;1712986;82;34672;-54
2022/11/11 06:11:57;;;;;;;34.55;20.40;;;;;;;6.70;100.00;101539.47;1716142;82;25546;-50
2022/11/11 06:14:24;;;;;;;39.08;21.65;;;;;;;6.72;100.00;101543.55;1699828;83;27417;-50
2022/11/11 06:16:50;;;;;;;37.40;20.85;;;;;;;6.74;100.00;101543.27;1729195;82;25656;-53
2022/11/11 06:19:16;;;;;;;37.53;21.05;;;;;;;6.77;100.00;101535.23;1719575;81;25529;-52
2022/11/11 06:21:57;;;;;;;41.37;21.52;;;;;;;6.79;100.00;101545.20;1726998;82;25594;-53
2022/11/11 06:24:24;;;;;;;37.53;20.60;;;;;;;6.80;100.00;101540.92;1731231;82;25561;-50
2022/11/11 06:26:50;;;;;;;35.78;19.87;;;;;;;6.82;100.00;101542.02;1710749;81;27419;-51
2022/11/11 06:29:16;;;;;;;35.92;20.35;;;;;;;6.84;100.00;101539.88;1739737;81;25627;-51
2022/11/11 06:31:44;;;;;;;31.25;19.57;;;;;;;6.86;100.00;101543.95;1725105;81;25464;-52
2022/11/11 06:34:10;;;;;;;32.60;19.87;;;;;;;6.87;100.00;101547.45;1722084;81;25628;-54
2022/11/11 06:36:37;;;;;;;31.65;19.45;;;;;;;6.90;100.00;101555.02;1722608;81;25426;-54
2022/11/11 06:39:03;;;;;;;30.85;19.20;;;;;;;6.91;100.00;101547.20;1740007;80;27508;-53
2022/11/11 06:41:29;;;;;;;30.10;19.82;;;;;;;6.94;100.00;101548.59;1724605;80;25410;-54
2022/11/11 06:43:55;;;;;;;41.55;19.67;;;;;;;6.97;100.00;101554.28;1745405;81;25730;-53
2022/11/11 06:46:24;;;;;;;33.63;19.65;;;;;;;7.00;100.00;101555.63;1755371;81;25660;-55
2022/11/11 06:48:51;;;;;;;34.78;19.42;;;;;;;7.02;100.00;101543.56;1752304;81;25400;-54
2022/11/11 06:51:17;;;;;;;33.18;19.60;;;;;;;7.04;100.00;101544.66;1749703;81;27419;-56
2022/11/11 06:53:44;;;;;;;32.03;19.23;;;;;;;7.05;100.00;101548.45;1752769;81;26118;-55
2022/11/11 06:56:13;;;;;;;38.55;20.72;;;;;;;7.07;100.00;101551.69;1729778;82;25546;-53
2022/11/11 06:58:40;;;;;;;38.73;19.87;;;;;;;7.11;100.00;101557.37;1715928;81;25685;-54
2022/11/11 07:01:08;;;;;;;36.33;19.40;;;;;;;7.13;100.00;101555.77;1733440;81;25630;-53
2022/11/11 07:03:35;;;;;;;27.82;18.80;;;;;;;7.15;100.00;101554.47;1724221;82;27322;-52
2022/11/11 07:06:04;;;;;;;33.92;19.17;;;;;;;7.18;100.00;101563.89;1715920;82;25445;-53
2022/11/11 07:08:31;;;;;;;35.20;18.25;;;;;;;7.20;100.00;101563.09;1721888;82;25433;-51
2022/11/11 07:10:58;;;;;;;35.45;19.17;;;;;;;7.22;100.00;101551.53;1715804;81;26237;-51
2022/11/11 07:13:25;;;;;;;36.50;19.40;;;;;;;7.25;100.00;101557.77;1719986;82;25874;-52
2022/11/11 07:15:51;;;;;;;31.27;18.55;;;;;;;7.27;100.00;101552.41;1723903;82;27408;-50
2022/11/11 07:18:18;;;;;;;35.80;18.23;;;;;;;7.30;100.00;101548.38;1711668;83;25566;-52
2022/11/11 07:20:44;;;;;;;37.05;19.17;;;;;;;7.34;100.00;101541.95;1716744;82;25409;-52
2022/11/11 07:23:10;;;;;;;36.80;18.62;;;;;;;7.36;100.00;101540.64;1712095;83;25814;-53
2022/11/11 07:25:36;;;;;;;32.98;18.77;;;;;;;7.39;100.00;101537.44;1714789;82;25864;-52
2022/11/11 07:28:03;;;;;;;34.05;19.02;;;;;;;7.41;100.00;101531.27;1724153;82;27331;-51
2022/11/11 07:30:29;;;;;;;29.80;17.98;;;;;;;7.43;100.00;101536.39;1721366;82;25417;-54
2022/11/11 07:32:55;;;;;;;34.83;18.50;;;;;;;7.46;100.00;101533.19;1712199;82;25477;-51
2022/11/11 07:35:23;;;;;;;29.67;18.12;;;;;;;7.50;100.00;101537.52;1710814;82;25868;-52
2022/11/11 07:37:49;;;;;;;30.72;18.20;;;;;;;7.50;100.00;101526.75;1722219;81;25469;-52
2022/11/11 07:40:18;;;;;;;29.30;17.90;;;;;;;7.52;100.00;101525.41;1727599;81;27378;-52
2022/11/11 07:42:45;;;;;;;34.38;17.90;;;;;;;7.56;100.00;101516.28;1721230;82;25569;-52
2022/11/11 07:45:14;;;;;;;37.20;17.98;;;;;;;7.59;100.00;101518.46;1721177;82;25483;-52
2022/11/11 07:47:43;;;;;;;32.65;18.77;;;;;;;7.63;100.00;101519.58;1686951;82;26278;-54
2022/11/11 07:50:11;;;;;;;35.60;17.30;;;;;;;7.64;100.00;101510.41;1714396;82;32338;-52
2022/11/11 07:52:37;;;;;;;32.67;17.73;;;;;;;7.66;100.00;101510.45;1714706;81;27906;-51
2022/11/11 07:55:07;;;;;;;33.48;17.65;;;;;;;7.71;100.00;101505.61;1714935;82;25622;-53
2022/11/11 07:57:33;;;;;;;37.15;17.10;;;;;;;7.75;100.00;101512.66;1712504;82;25419;-51
2022/11/11 07:59:59;;;;;;;31.50;18.30;;;;;;;7.77;100.00;101516.70;1715452;82;25753;-51
2022/11/11 08:02:26;;;;;;;57.15;29.15;;;;;;;7.80;100.00;101520.23;1711393;81;25536;-51
2022/11/11 08:04:52;;;;;;;36.98;17.55;;;;;;;7.83;100.00;101526.45;1721263;82;27394;-51
2022/11/11 08:07:18;;;;;;;34.08;16.93;;;;;;;7.85;100.00;101526.99;1724796;82;25532;-52
2022/11/11 08:09:45;;;;;;;31.07;16.80;;;;;;;7.89;100.00;101536.70;1726451;82;25360;-52
2022/11/11 08:14:56;;;;;;;33.35;19.75;;;;;;;7.95;100.00;101538.89;1725536;82;25619;-55
2022/11/11 08:17:23;;;;;;;31.52;17.15;;;;;;;7.99;100.00;101542.70;1719598;81;27192;-52
2022/11/11 08:19:50;;;;;;;24.23;15.50;;;;;;;8.03;100.00;101556.72;1710455;81;25536;-52
2022/11/11 08:22:17;;;;;;;26.60;15.25;;;;;;;8.06;100.00;101563.48;1719693;83;25465;-54
2022/11/11 08:24:43;;;;;;;26.45;15.78;;;;;;;8.10;100.00;101567.81;1716139;83;25590;-54
2022/11/11 08:27:10;;;;;;;32.23;15.72;;;;;;;8.13;100.00;101558.67;1708112;82;25748;-52
2022/11/11 08:29:37;;;;;;;35.10;15.43;;;;;;;8.15;100.00;101551.13;1722033;82;27418;-52
2022/11/11 08:32:06;;;;;;;27.50;14.60;;;;;;;8.21;100.00;101558.72;1724753;82;26070;-54
2022/11/11 08:34:32;;;;;;;26.95;15.35;;;;;;;8.25;100.00;101554.41;1715546;81;25569;-52
2022/11/11 08:37:00;;;;;;;25.85;15.10;;;;;;;8.31;100.00;101562.81;1718643;81;25709;-56
2022/11/11 08:39:30;;;;;;;34.45;16.32;;;;;;;8.38;100.00;101566.63;1719853;81;25887;-52
2022/11/11 08:41:57;;;;;;;26.12;14.68;;;;;;;8.46;100.00;101574.76;1721584;82;27279;-52
2022/11/11 08:44:26;;;;;;;25.57;14.75;;;;;;;8.57;100.00;101569.69;1718980;81;25588;-52
2022/11/11 08:46:52;;;;;;;30.62;15.53;;;;;;;8.66;100.00;101564.59;1714765;82;25716;-52
2022/11/11 08:49:19;;;;;;;28.52;15.10;;;;;;;8.76;100.00;101568.13;1721174;81;25675;-52
2022/11/11 08:51:45;;;;;;;24.98;15.00;;;;;;;8.84;100.00;101561.96;1710569;82;25599;-51
2022/11/11 08:54:13;;;;;;;32.40;14.75;;;;;;;8.91;100.00;101549.02;1720402;82;27163;-55
2022/11/11 08:56:40;;;;;;;28.00;15.72;;;;;;;9.03;100.00;101560.38;1708861;82;25623;-51
2022/11/11 08:59:13;;;;;;;27.35;16.45;;;;;;;9.10;100.00;101566.31;1711457;83;25778;-51
2022/11/11 09:01:39;;;;;;;24.55;14.10;;;;;;;9.16;100.00;101565.26;1709807;82;27765;-51
2022/11/11 09:04:15;;;;;;;25.85;14.75;;;;;;;9.24;100.00;101564.45;1712430;82;25625;-52
2022/11/11 09:06:44;;;;;;;31.80;14.65;;;;;;;9.28;100.00;101556.06;1726550;81;27386;-55
2022/11/11 09:09:11;;;;;;;23.25;12.93;;;;;;;9.35;100.00;101556.63;1713211;81;25935;-54
2022/11/11 09:11:39;;;;;;;27.00;13.65;;;;;;;9.39;100.00;101559.61;1719780;82;25515;-52
2022/11/11 09:14:06;;;;;;;24.92;13.68;;;;;;;9.43;100.00;101557.45;1719405;82;26267;-58
2022/11/11 09:16:33;;;;;;;22.87;13.00;;;;;;;9.48;100.00;101560.67;1715134;81;25147;-55
2022/11/11 09:22:02;;;;;;;22.70;13.05;;;;;;;9.52;99.19;101557.17;1674951;83;25833;-51
2022/11/11 09:24:28;;;;;;;20.43;12.13;;;;;;;9.58;99.38;101563.37;1708720;82;25460;-52
2022/11/11 09:26:55;;;;;;;22.50;13.25;;;;;;;9.62;99.08;101555.53;1653783;83;25734;-49
2022/11/11 09:29:22;;;;;;;27.70;12.73;;;;;;;9.63;98.56;101555.26;1717761;81;25736;-51
2022/11/11 09:31:48;;;;;;;29.27;13.62;;;;;;;9.64;98.27;101555.54;1720411;82;27333;-52
2022/11/11 09:34:14;;;;;;;20.48;12.78;;;;;;;9.66;97.93;101554.72;1719160;81;25580;-51
2022/11/11 09:36:42;;;;;;;30.12;13.05;;;;;;;9.69;97.80;101557.44;1719261;81;25850;-52
2022/11/11 09:39:08;;;;;;;25.60;12.85;;;;;;;9.73;98.02;101553.09;1716709;82;25877;-53
2022/11/11 09:42:16;;;;;;;24.92;12.90;;;;;;;9.76;97.96;101552.56;1722173;83;25611;-55
2022/11/11 09:45:21;;;;;;;29.80;12.82;;;;;;;9.82;98.02;101560.91;1720816;81;27367;-51
2022/11/11 09:48:19;;;;;;;21.52;11.22;;;;;;;9.87;97.78;101555.49;1716324;81;25443;-53
2022/11/11 09:50:53;;;;;;;21.48;10.75;;;;;;;9.90;97.56;101556.30;1719832;81;25493;-52
2022/11/11 09:53:26;;;;;;;18.77;12.53;;;;;;;9.93;97.27;101554.96;1724973;81;25897;-51
2022/11/11 09:56:04;;;;;;;26.15;13.00;;;;;;;9.95;96.91;101552.79;1721679;82;25906;-51
2022/11/11 09:58:41;;;;;;;28.45;12.93;;;;;;;9.96;96.65;101546.83;1712217;82;27375;-51
2022/11/11 10:01:19;;;;;;;30.15;11.80;;;;;;;10.02;97.07;101546.55;1720754;83;25854;-51
2022/11/11 10:04:00;;;;;;;23.87;12.03;;;;;;;10.05;96.45;101548.70;1719664;83;25687;-52
2022/11/11 10:06:33;;;;;;;20.27;11.73;;;;;;;10.07;96.45;101537.63;1723107;81;25629;-51
2022/11/11 10:09:05;;;;;;;27.48;12.30;;;;;;;10.11;96.32;101534.63;1724243;82;25494;-50
2022/11/11 10:11:45;;;;;;;31.57;11.73;;;;;;;10.13;96.10;101537.05;1721329;81;28334;-51
2022/11/11 10:14:12;;;;;;;22.25;12.23;;;;;;;10.16;96.17;101522.99;1704602;83;25924;-54
2022/11/11 10:17:11;;;;;;;23.12;11.65;;;;;;;10.19;95.62;101517.84;1720495;81;25487;-52
2022/11/11 10:20:17;;;;;;;21.15;10.85;;;;;;;10.19;95.17;101512.98;1716759;81;25853;-50
2022/11/11 10:22:50;;;;;;;21.42;10.78;;;;;;;10.18;94.57;101517.59;1717341;80;25807;-51
2022/11/11 10:25:26;;;;;;;18.95;10.55;;;;;;;10.18;94.68;101518.11;1720171;81;27263;-55
2022/11/11 10:27:58;;;;;;;23.25;10.93;;;;;;;10.18;94.59;101527.05;1719381;81;26011;-56
2022/11/11 10:30:32;;;;;;;17.98;11.28;;;;;;;10.19;94.68;101518.39;1722457;82;25455;-56
2022/11/11 10:33:18;;;;;;;21.82;10.58;;;;;;;10.20;94.61;101518.64;1720958;81;25843;-56
2022/11/11 10:35:48;;;;;;;24.87;10.93;;;;;;;10.19;94.25;101512.43;1719021;81;25944;-57
2022/11/11 10:38:27;;;;;;;20.02;10.53;;;;;;;10.24;94.58;101522.42;1722373;81;27334;-57
2022/11/11 10:40:59;;;;;;;18.77;10.10;;;;;;;10.28;94.29;101526.19;1714576;81;26230;-56
2022/11/11 10:43:29;;;;;;;23.27;10.18;;;;;;;10.28;93.38;101523.48;1723082;81;25566;-54
2022/11/11 10:46:19;;;;;;;18.62;10.65;;;;;;;10.30;93.77;101521.33;1714818;81;25819;-56
2022/11/11 10:49:06;;;;;;;19.98;9.80;;;;;;;10.38;94.37;101528.87;1720175;81;25814;-56
2022/11/11 10:51:49;;;;;;;23.75;10.80;;;;;;;10.42;93.44;101523.20;1703350;83;27409;-54
2022/11/11 10:54:30;;;;;;;17.50;10.05;;;;;;;10.47;92.89;101520.98;1711691;82;25521;-55
2022/11/11 10:57:14;;;;;;;14.58;9.45;;;;;;;10.50;92.53;101516.38;1666957;83;25801;-55
2022/11/11 10:59:58;;;;;;;20.12;9.95;;;;;;;10.53;92.46;101513.12;1662702;84;25730;-57
2022/11/11 11:03:11;;;;;;;20.55;9.93;;;;;;;10.57;92.38;101518.78;1670227;83;25713;-53
2022/11/11 11:05:46;;;;;;;17.77;9.43;;;;;;;10.63;92.86;101512.27;1662532;84;27359;-57
2022/11/11 11:08:23;;;;;;;20.20;9.33;;;;;;;10.70;92.29;101501.94;1660641;84;25502;-57
2022/11/11 11:13:42;;;;;;;20.05;10.00;;;;;;;10.87;91.49;101509.68;1905126;74;34956;-56
2022/11/11 11:16:23;;;;;;;19.87;8.23;;;;;;;10.86;91.31;101500.48;1859377;76;25407;-57
2022/11/11 11:19:23;;;;;;;17.75;9.08;;;;;;;10.88;91.17;101498.30;1860061;77;28058;-56
2022/11/11 11:21:56;;;;;;;23.18;9.95;;;;;;;10.88;90.19;101493.72;1859913;76;25359;-56
2022/11/11 11:24:28;;;;;;;18.57;9.20;;;;;;;10.87;90.40;101487.23;1860112;77;25413;-58
2022/11/11 11:27:01;;;;;;;19.27;9.10;;;;;;;10.86;89.93;101492.36;1860134;76;25527;-57
2022/11/11 11:29:43;;;;;;;17.25;8.95;;;;;;;10.86;89.96;101482.89;1860141;76;25587;-56
2022/11/11 11:32:26;;;;;;;21.10;9.35;;;;;;;10.85;89.84;101479.39;1860069;76;27572;-54
2022/11/11 11:34:54;;;;;;;20.95;9.33;;;;;;;10.86;90.05;101482.89;1858489;76;26258;-56
2022/11/11 11:37:24;;;;;;;14.13;8.20;;;;;;;10.90;89.88;101482.61;1860062;76;25510;-57
2022/11/11 11:40:06;;;;;;;19.70;8.85;;;;;;;10.90;89.64;101479.34;1859834;77;25594;-57
2022/11/11 11:42:36;;;;;;;18.73;9.03;;;;;;;10.92;89.15;101477.16;1860011;77;25570;-58
2022/11/11 11:45:28;;;;;;;16.70;8.35;;;;;;;10.92;89.35;101481.22;1859940;77;28093;-57
2022/11/11 11:48:28;;;;;;;19.62;8.28;;;;;;;10.95;89.04;101485.28;1859909;76;25537;-56
2022/11/11 11:51:12;;;;;;;17.70;8.78;;;;;;;10.95;88.60;101482.02;1859921;77;25433;-58
2022/11/11 11:54:02;;;;;;;24.47;9.05;;;;;;;10.95;88.95;101479.31;1809645;79;25434;-59
2022/11/11 11:56:55;;;;;;;20.02;9.03;;;;;;;10.96;89.00;101472.78;1809767;79;25568;-60
2022/11/11 11:59:42;;;;;;;21.52;8.23;;;;;;;10.98;88.51;101476.05;1809672;79;28084;-57
2022/11/11 12:02:42;;;;;;;16.50;8.30;;;;;;;10.98;88.49;101478.75;1809569;79;25529;-54
2022/11/11 12:05:39;;;;;;;20.77;8.85;;;;;;;11.00;88.47;101479.83;1807617;79;25625;-57
2022/11/11 12:08:20;;;;;;;21.10;8.68;;;;;;;11.02;88.43;101477.64;1808953;79;25617;-56
2022/11/11 12:11:17;;;;;;;18.50;8.80;;;;;;;11.04;88.50;101474.09;1786393;80;25674;-59
2022/11/11 12:14:20;;;;;;;19.37;8.28;;;;;;;11.07;88.34;101469.47;1786728;80;27577;-57
2022/11/11 12:17:20;;;;;;;16.95;8.98;;;;;;;11.12;88.37;101465.92;1781540;80;28606;-58
2022/11/11 12:20:19;;;;;;;18.87;8.53;;;;;;;11.11;87.33;101465.09;1786764;80;25427;-57
2022/11/11 12:22:57;;;;;;;14.93;8.78;;;;;;;11.12;87.53;101470.78;1786654;80;25650;-57
2022/11/11 12:25:45;;;;;;;18.23;9.58;;;;;;;11.12;87.28;101460.51;1786289;80;25505;-57
2022/11/11 12:28:26;;;;;;;16.02;8.58;;;;;;;11.12;87.29;101473.49;1786254;80;27401;-56
2022/11/11 12:31:00;;;;;;;19.60;8.80;;;;;;;11.15;87.72;101470.75;1819344;78;25982;-57
2022/11/11 12:33:47;;;;;;;19.50;9.45;;;;;;;11.16;87.58;101459.63;1801073;78;25672;-57
2022/11/11 12:36:21;;;;;;;23.75;9.28;;;;;;;11.21;87.04;101473.13;1819874;78;25999;-57
2022/11/11 12:38:58;;;;;;;22.02;8.98;;;;;;;11.21;87.15;101483.97;1819963;78;25506;-54
2022/11/11 12:42:07;;;;;;;19.20;9.05;;;;;;;11.25;87.53;101486.91;1819804;78;27583;-57
2022/11/11 12:44:57;;;;;;;18.55;10.00;;;;;;;11.30;87.41;101490.13;1819745;78;25473;-58
2022/11/11 12:47:46;;;;;;;19.50;8.83;;;;;;;11.33;86.47;101486.30;1835829;77;25455;-57
2022/11/11 12:50:20;;;;;;;20.97;8.28;;;;;;;11.30;86.07;101480.09;1859373;77;25520;-56
2022/11/11 12:53:12;;;;;;;18.98;9.43;;;;;;;11.27;86.05;101475.27;1859274;76;25468;-54
2022/11/11 12:56:01;;;;;;;20.77;10.55;;;;;;;11.26;86.27;101486.38;1858910;76;27532;-56
2022/11/11 12:58:48;;;;;;;22.00;9.43;;;;;;;11.23;85.40;101490.45;1858769;76;25584;-55
2022/11/11 13:01:57;;;;;;;19.27;9.60;;;;;;;11.20;85.84;101486.43;1859240;76;25537;-56